Time;durP1;ratioP1;P1;durP2;ratioP2;P2;SDS_P1;SDS_P2;PMS_P1;PMS_P2;Temp;Humidity;BMP_temperature;BMP_pressure;BME280_temperature;BME280_humidity;BME280_pressure;Samples;Min_cycle;Max_cycle;Signal;HPM_P1;HPM_P2
2022/11/23 00:01:15;;;;;;;212.13;86.90;;;;;;;;;;4992858;28;20631;-53
2022/11/23 00:03:41;;;;;;;492.40;167.90;;;;;;;;;;4992415;28;20585;-53
2022/11/23 00:06:11;;;;;;;252.37;103.87;;;;;;;;;;4998053;28;20197;-53
2022/11/23 00:08:37;;;;;;;412.77;141.43;;;;;;;;;;5011588;28;20294;-54
2022/11/23 00:11:03;;;;;;;321.20;112.03;;;;;;;;;;5022455;28;20223;-53
2022/11/23 00:13:29;;;;;;;272.33;104.83;;;;;;;;;;4992473;28;20342;-52
2022/11/23 00:15:55;;;;;;;394.33;143.07;;;;;;;;;;4989178;28;20216;-53
2022/11/23 00:18:22;;;;;;;403.17;152.37;;;;;;;;;;4982462;28;20528;-53
2022/11/23 00:20:48;;;;;;;472.67;161.00;;;;;;;;;;4980616;28;20205;-52
2022/11/23 00:23:14;;;;;;;296.37;102.07;;;;;;;;;;4992366;28;20262;-53
2022/11/23 00:25:40;;;;;;;482.93;174.57;;;;;;;;;;4985101;28;20472;-52
2022/11/23 00:28:06;;;;;;;288.83;108.63;;;;;;;;;;4986745;28;20427;-53
2022/11/23 00:30:32;;;;;;;433.20;147.27;;;;;;;;;;4988842;28;20184;-53
2022/11/23 00:32:58;;;;;;;252.47;97.27;;;;;;;;;;4992333;28;20216;-53
2022/11/23 00:35:24;;;;;;;230.07;91.07;;;;;;;;;;5000468;28;20777;-53
2022/11/23 00:37:50;;;;;;;505.03;176.67;;;;;;;;;;4990929;28;20921;-53
2022/11/23 00:40:19;;;;;;;411.37;153.17;;;;;;;;;;4985136;28;20239;-56
2022/11/23 00:42:45;;;;;;;384.77;138.80;;;;;;;;;;4987604;28;20220;-53
2022/11/23 00:45:11;;;;;;;397.53;142.00;;;;;;;;;;4994419;28;20242;-53
2022/11/23 00:47:37;;;;;;;304.27;110.43;;;;;;;;;;4988700;28;20224;-53
2022/11/23 00:50:04;;;;;;;220.07;87.77;;;;;;;;;;4990188;28;20220;-53
2022/11/23 00:52:30;;;;;;;454.33;152.63;;;;;;;;;;4986564;28;20696;-53
2022/11/23 00:54:56;;;;;;;341.17;122.13;;;;;;;;;;4991156;28;20284;-52
2022/11/23 00:57:22;;;;;;;293.93;108.40;;;;;;;;;;4987282;28;20187;-53
2022/11/23 00:59:48;;;;;;;477.67;158.40;;;;;;;;;;4997372;28;20181;-52
2022/11/23 01:02:14;;;;;;;327.47;118.83;;;;;;;;;;4986465;28;20910;-53
2022/11/23 01:04:40;;;;;;;399.80;136.37;;;;;;;;;;4998283;28;20319;-52
2022/11/23 01:07:07;;;;;;;233.10;94.83;;;;;;;;;;5012161;28;20278;-53
2022/11/23 01:09:33;;;;;;;295.47;112.60;;;;;;;;;;5002112;28;20227;-53
2022/11/23 01:11:58;;;;;;;340.00;113.87;;;;;;;;;;5007319;28;20275;-53
2022/11/23 01:14:24;;;;;;;369.43;132.20;;;;;;;;;;4986710;28;20228;-52
2022/11/23 01:16:54;;;;;;;432.00;146.80;;;;;;;;;;4983133;28;20344;-53
2022/11/23 01:19:20;;;;;;;311.20;116.37;;;;;;;;;;5001885;28;20220;-53
2022/11/23 01:21:46;;;;;;;439.27;154.30;;;;;;;;;;4988981;28;20230;-53
2022/11/23 01:24:14;;;;;;;371.37;126.73;;;;;;;;;;5013689;28;20629;-53
2022/11/23 01:26:40;;;;;;;500.67;166.33;;;;;;;;;;4992776;28;20308;-53
2022/11/23 01:29:06;;;;;;;324.73;118.87;;;;;;;;;;4995127;28;20221;-53
2022/11/23 01:31:32;;;;;;;265.07;104.30;;;;;;;;;;4983858;28;20238;-53
2022/11/23 01:34:00;;;;;;;432.33;148.73;;;;;;;;;;4992141;28;20232;-53
2022/11/23 01:36:30;;;;;;;393.90;146.07;;;;;;;;;;4989132;28;20347;-53
2022/11/23 01:38:57;;;;;;;399.60;140.00;;;;;;;;;;4984498;28;20361;-53
2022/11/23 01:41:24;;;;;;;372.53;129.90;;;;;;;;;;4988854;28;21152;-53
2022/11/23 01:43:50;;;;;;;265.93;95.30;;;;;;;;;;4993768;28;20704;-53
2022/11/23 01:46:17;;;;;;;226.10;91.67;;;;;;;;;;4996654;28;21162;-52
2022/11/23 01:48:42;;;;;;;357.27;120.70;;;;;;;;;;5008380;28;20695;-53
2022/11/23 01:51:10;;;;;;;416.40;142.10;;;;;;;;;;4990820;28;20279;-52
2022/11/23 01:53:37;;;;;;;381.60;135.27;;;;;;;;;;4988363;28;20489;-53
2022/11/23 01:56:05;;;;;;;385.83;137.07;;;;;;;;;;4989212;28;20239;-53
2022/11/23 01:58:32;;;;;;;328.93;117.40;;;;;;;;;;4993735;28;20275;-53
2022/11/23 02:00:58;;;;;;;260.17;100.03;;;;;;;;;;4998785;28;20227;-53
2022/11/23 02:03:25;;;;;;;185.37;81.20;;;;;;;;;;4990149;28;20672;-53
2022/11/23 02:05:53;;;;;;;218.43;89.57;;;;;;;;;;4991892;28;20237;-52
2022/11/23 02:08:19;;;;;;;295.33;108.93;;;;;;;;;;4998866;28;20216;-53
2022/11/23 02:10:46;;;;;;;411.00;140.73;;;;;;;;;;4991351;28;20245;-53
2022/11/23 02:13:16;;;;;;;322.80;111.43;;;;;;;;;;5000992;28;20860;-54
2022/11/23 02:15:42;;;;;;;338.90;119.60;;;;;;;;;;4999696;28;20295;-54
2022/11/23 02:18:16;;;;;;;378.93;133.80;;;;;;;;;;5003434;28;20629;-53
2022/11/23 02:20:43;;;;;;;414.27;146.30;;;;;;;;;;5010695;28;20374;-53
2022/11/23 02:23:28;;;;;;;391.73;137.40;;;;;;;;;;5009320;28;20235;-54
2022/11/23 02:25:56;;;;;;;364.63;131.93;;;;;;;;;;5010602;28;20215;-54
2022/11/23 02:28:24;;;;;;;381.00;133.30;;;;;;;;;;5009101;28;20565;-54
2022/11/23 02:30:52;;;;;;;340.83;120.40;;;;;;;;;;5009969;28;20270;-53
2022/11/23 02:33:18;;;;;;;405.50;140.57;;;;;;;;;;5005165;28;21345;-54
2022/11/23 02:35:48;;;;;;;380.13;123.47;;;;;;;;;;5015201;28;20184;-54
2022/11/23 02:38:17;;;;;;;225.97;91.23;;;;;;;;;;5015184;28;20212;-53
2022/11/23 02:40:43;;;;;;;246.50;91.30;;;;;;;;;;5002136;28;20646;-54
2022/11/23 02:43:09;;;;;;;280.23;105.10;;;;;;;;;;4989630;28;20331;-53
2022/11/23 02:45:39;;;;;;;303.87;101.17;;;;;;;;;;4992406;28;20220;-54
2022/11/23 02:48:07;;;;;;;394.17;138.73;;;;;;;;;;4984481;28;20181;-53
2022/11/23 02:50:33;;;;;;;373.70;129.25;;;;;;;;;;4986424;28;20217;-53
2022/11/23 02:52:59;;;;;;;337.77;122.77;;;;;;;;;;4992456;28;20993;-54
2022/11/23 02:55:25;;;;;;;348.67;115.20;;;;;;;;;;4998308;28;20224;-54
2022/11/23 02:57:51;;;;;;;505.97;171.80;;;;;;;;;;4983372;28;20266;-55
2022/11/23 03:00:18;;;;;;;493.93;170.07;;;;;;;;;;5012867;28;20363;-54
2022/11/23 03:02:44;;;;;;;333.37;116.57;;;;;;;;;;5007409;28;20814;-54
2022/11/23 03:05:10;;;;;;;306.60;109.23;;;;;;;;;;5006137;28;20231;-54
2022/11/23 03:07:36;;;;;;;352.00;114.87;;;;;;;;;;5002286;28;20526;-55
2022/11/23 03:10:02;;;;;;;454.80;162.97;;;;;;;;;;4986986;28;20505;-53
2022/11/23 03:12:31;;;;;;;355.10;122.97;;;;;;;;;;4999266;28;20199;-54
2022/11/23 03:14:57;;;;;;;387.63;127.57;;;;;;;;;;5016414;28;20208;-54
2022/11/23 03:17:23;;;;;;;286.57;103.93;;;;;;;;;;5004474;28;20302;-54
2022/11/23 03:19:49;;;;;;;221.57;85.40;;;;;;;;;;5009987;28;20212;-54
2022/11/23 03:22:15;;;;;;;275.20;99.30;;;;;;;;;;5008787;28;20215;-54
2022/11/23 03:24:41;;;;;;;454.00;156.57;;;;;;;;;;5003282;28;20267;-54
2022/11/23 03:27:07;;;;;;;329.53;112.30;;;;;;;;;;5006969;28;20192;-54
2022/11/23 03:29:33;;;;;;;394.73;131.83;;;;;;;;;;5015781;28;20346;-54
2022/11/23 03:31:59;;;;;;;298.67;104.83;;;;;;;;;;5025155;28;20456;-54
2022/11/23 03:34:25;;;;;;;250.47;95.27;;;;;;;;;;5008269;28;20235;-53
2022/11/23 03:36:51;;;;;;;299.00;108.73;;;;;;;;;;5012869;28;20219;-54
2022/11/23 03:39:17;;;;;;;282.63;107.00;;;;;;;;;;5004464;28;20390;-54
2022/11/23 03:41:44;;;;;;;340.90;117.57;;;;;;;;;;5018027;28;20243;-54
2022/11/23 03:44:10;;;;;;;333.20;115.00;;;;;;;;;;5012707;28;20299;-54
2022/11/23 03:46:36;;;;;;;416.07;134.57;;;;;;;;;;4995073;28;20223;-53
2022/11/23 03:49:02;;;;;;;437.03;152.13;;;;;;;;;;4961483;28;20216;-53
2022/11/23 03:51:27;;;;;;;416.87;135.57;;;;;;;;;;4992807;28;20673;-54
2022/11/23 03:53:53;;;;;;;483.63;163.83;;;;;;;;;;4996336;28;20215;-53
2022/11/23 03:56:20;;;;;;;356.27;118.53;;;;;;;;;;4993879;28;20255;-54
2022/11/23 03:58:46;;;;;;;381.80;129.87;;;;;;;;;;4990668;28;20208;-53
2022/11/23 04:01:12;;;;;;;360.50;123.77;;;;;;;;;;4990503;28;20212;-53
2022/11/23 04:03:38;;;;;;;402.47;135.67;;;;;;;;;;4991432;28;20231;-53
2022/11/23 04:06:04;;;;;;;357.83;117.43;;;;;;;;;;4989445;28;20177;-53
2022/11/23 04:08:31;;;;;;;461.63;157.67;;;;;;;;;;4988629;28;20224;-53
2022/11/23 04:10:57;;;;;;;443.67;148.60;;;;;;;;;;4985677;28;20503;-53
2022/11/23 04:13:23;;;;;;;321.33;114.67;;;;;;;;;;4982797;28;20227;-53
2022/11/23 04:15:49;;;;;;;304.03;115.00;;;;;;;;;;4986412;28;20266;-53
2022/11/23 04:18:15;;;;;;;313.93;111.87;;;;;;;;;;4980779;28;20219;-53
2022/11/23 04:20:41;;;;;;;427.33;146.70;;;;;;;;;;4990892;28;20189;-55
2022/11/23 04:23:08;;;;;;;354.07;125.97;;;;;;;;;;4990785;28;20265;-54
2022/11/23 04:25:34;;;;;;;402.27;126.53;;;;;;;;;;4988873;28;20213;-54
2022/11/23 04:28:09;;;;;;;419.20;137.30;;;;;;;;;;4981784;28;20831;-54
2022/11/23 04:30:35;;;;;;;355.97;122.47;;;;;;;;;;4977967;28;20665;-54
2022/11/23 04:33:01;;;;;;;323.13;105.43;;;;;;;;;;5012823;28;20306;-54
2022/11/23 04:35:27;;;;;;;339.23;111.77;;;;;;;;;;4990890;28;20224;-54
2022/11/23 04:37:53;;;;;;;382.20;120.87;;;;;;;;;;4991732;28;20513;-54
2022/11/23 04:40:19;;;;;;;371.60;120.27;;;;;;;;;;4986131;28;20232;-54
2022/11/23 04:42:46;;;;;;;429.90;145.30;;;;;;;;;;4985414;28;20225;-54
2022/11/23 04:45:12;;;;;;;322.27;112.10;;;;;;;;;;5003998;28;20673;-54
2022/11/23 04:47:38;;;;;;;406.37;126.90;;;;;;;;;;4990063;28;20360;-54
2022/11/23 04:50:04;;;;;;;398.93;126.43;;;;;;;;;;4980894;28;20672;-54
2022/11/23 04:52:30;;;;;;;343.33;110.63;;;;;;;;;;4990626;28;20602;-54
2022/11/23 04:54:56;;;;;;;277.70;103.43;;;;;;;;;;4984782;28;20287;-54
2022/11/23 04:57:22;;;;;;;389.17;133.20;;;;;;;;;;4993516;28;20192;-54
2022/11/23 04:59:48;;;;;;;480.23;155.53;;;;;;;;;;4991982;28;20609;-54
2022/11/23 05:02:14;;;;;;;354.00;115.87;;;;;;;;;;4991560;28;20212;-54
2022/11/23 05:04:41;;;;;;;402.73;133.63;;;;;;;;;;5004991;28;20220;-54
2022/11/23 05:07:07;;;;;;;311.93;105.10;;;;;;;;;;4999866;28;20531;-54
2022/11/23 05:09:33;;;;;;;296.50;104.30;;;;;;;;;;4988481;28;20294;-54
2022/11/23 05:11:59;;;;;;;313.30;103.63;;;;;;;;;;4994291;28;20234;-54
2022/11/23 05:14:25;;;;;;;234.17;86.90;;;;;;;;;;4994076;28;20317;-54
2022/11/23 05:16:51;;;;;;;279.13;101.13;;;;;;;;;;4989839;28;20573;-54
2022/11/23 05:19:17;;;;;;;378.47;122.83;;;;;;;;;;4999884;28;20571;-54
2022/11/23 05:21:43;;;;;;;368.60;123.13;;;;;;;;;;4983190;28;21084;-54
2022/11/23 05:24:12;;;;;;;378.87;123.20;;;;;;;;;;4998616;28;20410;-54
2022/11/23 05:26:38;;;;;;;359.23;116.30;;;;;;;;;;5017974;28;20769;-53
2022/11/23 05:29:04;;;;;;;389.40;130.93;;;;;;;;;;4994969;28;20217;-53
2022/11/23 05:31:30;;;;;;;318.93;109.27;;;;;;;;;;5005906;28;20225;-54
2022/11/23 05:33:56;;;;;;;384.73;133.23;;;;;;;;;;4982282;28;23035;-54
2022/11/23 05:36:22;;;;;;;316.70;107.57;;;;;;;;;;5005898;28;20661;-53
2022/11/23 05:38:48;;;;;;;379.40;123.77;;;;;;;;;;5016682;28;20228;-53
2022/11/23 05:41:17;;;;;;;281.23;95.47;;;;;;;;;;5004558;28;20390;-53
2022/11/23 05:43:43;;;;;;;331.57;116.17;;;;;;;;;;5001681;28;20507;-54
2022/11/23 05:46:08;;;;;;;321.63;114.60;;;;;;;;;;5004154;28;20351;-54
2022/11/23 05:48:35;;;;;;;227.93;95.63;;;;;;;;;;5001778;28;20867;-53
2022/11/23 05:51:01;;;;;;;213.60;88.53;;;;;;;;;;5020549;28;20199;-54
2022/11/23 05:53:27;;;;;;;425.30;152.77;;;;;;;;;;4995667;28;20248;-54
2022/11/23 05:55:53;;;;;;;404.43;140.80;;;;;;;;;;4999409;28;20236;-54
2022/11/23 05:58:20;;;;;;;329.23;113.27;;;;;;;;;;5001923;28;20251;-54
2022/11/23 06:00:46;;;;;;;304.97;104.90;;;;;;;;;;5000466;28;20240;-54
2022/11/23 06:03:12;;;;;;;417.33;145.60;;;;;;;;;;5002516;28;20205;-54
2022/11/23 06:05:38;;;;;;;408.97;128.17;;;;;;;;;;5009649;28;20204;-54
2022/11/23 06:08:04;;;;;;;336.20;111.57;;;;;;;;;;5009557;28;20856;-54
2022/11/23 06:10:30;;;;;;;161.00;65.37;;;;;;;;;;4991786;28;20510;-54
2022/11/23 06:13:01;;;;;;;285.93;99.67;;;;;;;;;;5004675;28;20223;-54
2022/11/23 06:15:27;;;;;;;336.13;114.57;;;;;;;;;;5009853;28;20205;-53
2022/11/23 06:17:53;;;;;;;335.13;109.67;;;;;;;;;;5013500;28;20227;-54
2022/11/23 06:20:19;;;;;;;353.77;118.60;;;;;;;;;;5013296;28;20209;-58
2022/11/23 06:22:51;;;;;;;288.10;96.67;;;;;;;;;;5028275;28;20233;-54
2022/11/23 06:25:17;;;;;;;210.10;79.37;;;;;;;;;;5011089;28;20225;-54
2022/11/23 06:27:43;;;;;;;275.80;95.30;;;;;;;;;;5015101;28;20554;-54
2022/11/23 06:30:09;;;;;;;265.43;89.53;;;;;;;;;;5017329;28;20649;-54
2022/11/23 06:32:36;;;;;;;378.23;116.27;;;;;;;;;;5015041;28;20274;-53
2022/11/23 06:35:02;;;;;;;400.67;146.83;;;;;;;;;;5009618;28;20213;-53
2022/11/23 06:37:28;;;;;;;502.10;176.20;;;;;;;;;;4986386;28;20299;-53
2022/11/23 06:39:54;;;;;;;315.27;113.43;;;;;;;;;;4995573;28;20432;-55
2022/11/23 06:42:20;;;;;;;475.03;161.17;;;;;;;;;;4989907;28;20205;-53
2022/11/23 06:44:46;;;;;;;304.10;105.33;;;;;;;;;;4995461;28;20213;-54
2022/11/23 06:47:12;;;;;;;280.90;94.37;;;;;;;;;;5006049;28;20836;-53
2022/11/23 06:49:38;;;;;;;522.87;178.83;;;;;;;;;;4980559;28;20986;-52
2022/11/23 06:52:05;;;;;;;487.37;169.30;;;;;;;;;;4976324;28;21187;-52
2022/11/23 06:54:31;;;;;;;597.30;206.67;;;;;;;;;;4984743;28;20230;-52
2022/11/23 06:56:57;;;;;;;377.67;129.83;;;;;;;;;;4985061;28;20185;-54
2022/11/23 06:59:23;;;;;;;345.00;116.43;;;;;;;;;;5001747;28;20238;-52
2022/11/23 07:01:49;;;;;;;438.87;152.03;;;;;;;;;;5004868;28;20235;-52
2022/11/23 07:04:16;;;;;;;409.03;142.90;;;;;;;;;;5007654;28;20270;-52
2022/11/23 07:06:42;;;;;;;224.97;90.20;;;;;;;;;;5011751;28;20217;-52
2022/11/23 07:09:08;;;;;;;393.53;137.17;;;;;;;;;;5003918;28;20192;-52
2022/11/23 07:11:34;;;;;;;470.03;160.70;;;;;;;;;;5001173;28;20347;-52
2022/11/23 07:14:00;;;;;;;279.97;100.60;;;;;;;;;;5004030;28;20303;-52
2022/11/23 07:16:26;;;;;;;487.03;158.03;;;;;;;;;;4997153;28;20219;-52
2022/11/23 07:18:52;;;;;;;349.90;121.27;;;;;;;;;;5017616;28;20220;-52
2022/11/23 07:21:18;;;;;;;239.23;95.70;;;;;;;;;;5005954;28;20205;-55
2022/11/23 07:23:44;;;;;;;302.73;109.60;;;;;;;;;;5006077;28;20228;-52
2022/11/23 07:26:10;;;;;;;323.13;121.97;;;;;;;;;;5006347;28;20224;-53
2022/11/23 07:28:36;;;;;;;428.40;149.13;;;;;;;;;;5003549;28;20278;-52
2022/11/23 07:31:02;;;;;;;265.00;100.23;;;;;;;;;;5004618;28;20220;-53
2022/11/23 07:33:28;;;;;;;454.03;154.87;;;;;;;;;;5018580;28;20260;-52
2022/11/23 07:35:54;;;;;;;255.20;98.03;;;;;;;;;;5005942;28;20477;-52
2022/11/23 07:38:20;;;;;;;215.37;88.17;;;;;;;;;;5004820;28;20213;-52
2022/11/23 07:40:48;;;;;;;220.47;91.60;;;;;;;;;;5002805;28;20306;-52
2022/11/23 07:43:14;;;;;;;241.77;100.37;;;;;;;;;;5002142;28;20232;-52
2022/11/23 07:45:40;;;;;;;399.13;139.13;;;;;;;;;;5003255;28;20216;-52
2022/11/23 07:48:07;;;;;;;261.60;106.20;;;;;;;;;;5018174;28;20225;-50
2022/11/23 07:50:34;;;;;;;436.57;147.53;;;;;;;;;;5004495;28;20212;-51
2022/11/23 07:53:01;;;;;;;198.97;86.73;;;;;;;;;;5020831;28;20244;-51
2022/11/23 07:55:29;;;;;;;431.70;151.23;;;;;;;;;;5006063;28;20316;-51
2022/11/23 07:57:55;;;;;;;465.93;174.50;;;;;;;;;;5001302;28;20701;-52
2022/11/23 08:00:22;;;;;;;413.07;149.03;;;;;;;;;;5003818;28;20211;-52
2022/11/23 08:02:48;;;;;;;253.10;103.67;;;;;;;;;;4999064;28;20216;-52
2022/11/23 08:05:15;;;;;;;287.50;118.37;;;;;;;;;;5009376;28;20208;-53
2022/11/23 08:07:41;;;;;;;404.10;150.07;;;;;;;;;;5009850;28;20257;-53
2022/11/23 08:10:08;;;;;;;239.33;100.23;;;;;;;;;;5036498;28;20695;-53
2022/11/23 08:12:34;;;;;;;436.07;162.47;;;;;;;;;;5021039;28;20307;-53
2022/11/23 08:15:00;;;;;;;335.47;128.53;;;;;;;;;;5024192;28;20719;-53
2022/11/23 08:17:26;;;;;;;239.83;99.70;;;;;;;;;;5021486;28;20204;-55
2022/11/23 08:19:52;;;;;;;279.77;113.87;;;;;;;;;;5019287;28;20268;-54
2022/11/23 08:22:18;;;;;;;380.80;147.77;;;;;;;;;;5016247;28;20224;-55
2022/11/23 08:24:48;;;;;;;508.83;183.27;;;;;;;;;;5015884;28;20223;-54
2022/11/23 08:27:14;;;;;;;225.90;97.70;;;;;;;;;;5036342;28;20207;-54
2022/11/23 08:29:40;;;;;;;475.57;177.47;;;;;;;;;;5018390;28;20695;-54
2022/11/23 08:32:06;;;;;;;255.63;107.10;;;;;;;;;;5020839;28;20212;-59
2022/11/23 08:34:32;;;;;;;293.80;118.47;;;;;;;;;;5019856;28;20228;-54
2022/11/23 08:36:59;;;;;;;257.97;110.70;;;;;;;;;;5019836;28;20218;-54
2022/11/23 08:39:24;;;;;;;299.00;122.27;;;;;;;;;;5016919;28;20267;-54
2022/11/23 08:41:51;;;;;;;488.97;165.77;;;;;;;;;;5014335;28;20648;-54
2022/11/23 08:44:17;;;;;;;286.23;115.30;;;;;;;;;;5030277;28;20302;-54
2022/11/23 08:46:43;;;;;;;494.67;174.60;;;;;;;;;;5015941;28;20212;-54
2022/11/23 08:49:09;;;;;;;262.00;112.37;;;;;;;;;;5017719;28;20704;-54
2022/11/23 08:51:35;;;;;;;481.97;170.87;;;;;;;;;;5017263;28;21341;-54
2022/11/23 08:54:01;;;;;;;506.27;174.33;;;;;;;;;;5018239;28;20679;-54
2022/11/23 08:56:30;;;;;;;483.23;168.13;;;;;;;;;;5032830;28;20231;-54
2022/11/23 08:58:56;;;;;;;279.47;119.70;;;;;;;;;;5018350;28;20339;-54
2022/11/23 09:01:22;;;;;;;362.63;133.57;;;;;;;;;;5012996;28;20308;-54
2022/11/23 09:03:48;;;;;;;502.10;182.07;;;;;;;;;;5014314;28;20273;-54
2022/11/23 09:06:14;;;;;;;335.17;131.23;;;;;;;;;;5011795;28;20811;-54
2022/11/23 09:08:40;;;;;;;490.37;174.67;;;;;;;;;;5013856;28;20279;-54
2022/11/23 09:11:07;;;;;;;353.03;134.70;;;;;;;;;;5016340;28;20250;-54
2022/11/23 09:13:36;;;;;;;287.97;112.40;;;;;;;;;;5014647;28;20298;-54
2022/11/23 09:16:03;;;;;;;274.47;109.43;;;;;;;;;;5016002;28;20204;-53
2022/11/23 09:18:30;;;;;;;410.43;153.37;;;;;;;;;;5015032;28;20540;-54
2022/11/23 09:20:56;;;;;;;522.13;196.33;;;;;;;;;;5009263;28;21398;-54
2022/11/23 09:23:23;;;;;;;339.83;136.23;;;;;;;;;;5029391;28;20220;-54
2022/11/23 09:25:49;;;;;;;436.13;162.13;;;;;;;;;;5020707;28;20637;-54
2022/11/23 09:28:18;;;;;;;332.23;130.07;;;;;;;;;;5018145;28;20218;-54
2022/11/23 09:30:44;;;;;;;394.80;139.23;;;;;;;;;;5036094;28;20220;-53
2022/11/23 09:33:10;;;;;;;385.10;137.10;;;;;;;;;;5018996;28;20267;-54
2022/11/23 09:35:36;;;;;;;257.07;107.60;;;;;;;;;;5019369;28;20273;-53
2022/11/23 09:38:02;;;;;;;493.27;176.77;;;;;;;;;;5019533;28;20207;-54
2022/11/23 09:40:31;;;;;;;419.63;153.13;;;;;;;;;;5017370;28;20220;-53
2022/11/23 09:43:09;;;;;;;390.80;142.27;;;;;;;;;;5022340;28;20211;-54
2022/11/23 09:46:01;;;;;;;351.43;142.13;;;;;;;;;;5022137;28;20211;-54
2022/11/23 09:48:38;;;;;;;384.70;142.30;;;;;;;;;;5018861;28;20618;-53
2022/11/23 09:51:05;;;;;;;286.80;115.40;;;;;;;;;;5024270;28;20541;-54
2022/11/23 09:53:39;;;;;;;267.00;104.93;;;;;;;;;;5024283;28;20561;-54
2022/11/23 09:56:14;;;;;;;472.53;165.33;;;;;;;;;;5019998;28;20216;-53
2022/11/23 09:58:40;;;;;;;363.83;133.73;;;;;;;;;;5019369;28;20700;-53
2022/11/23 10:01:07;;;;;;;390.70;146.13;;;;;;;;;;5021260;28;20328;-53
2022/11/23 10:03:37;;;;;;;415.57;154.63;;;;;;;;;;5015372;28;20212;-55
2022/11/23 10:06:21;;;;;;;449.43;167.63;;;;;;;;;;5022722;28;20242;-53
2022/11/23 10:08:47;;;;;;;381.90;147.33;;;;;;;;;;5020045;28;20216;-53
2022/11/23 10:11:31;;;;;;;450.30;160.53;;;;;;;;;;5023474;28;20530;-53
2022/11/23 10:14:15;;;;;;;279.17;114.10;;;;;;;;;;5025612;28;21319;-54
2022/11/23 10:17:01;;;;;;;374.73;145.03;;;;;;;;;;5010036;28;20216;-53
2022/11/23 10:19:46;;;;;;;463.60;162.40;;;;;;;;;;5015784;28;20204;-53
2022/11/23 10:22:26;;;;;;;381.67;134.63;;;;;;;;;;5010845;28;20235;-53
2022/11/23 10:24:53;;;;;;;347.27;127.20;;;;;;;;;;5000512;28;20236;-53
2022/11/23 10:27:23;;;;;;;387.30;146.37;;;;;;;;;;5018977;28;20637;-53
2022/11/23 10:29:51;;;;;;;398.80;134.03;;;;;;;;;;5017367;28;20185;-53
2022/11/23 10:32:25;;;;;;;246.53;103.73;;;;;;;;;;5001502;28;20209;-53
2022/11/23 10:35:00;;;;;;;449.73;168.07;;;;;;;;;;5001446;28;20223;-53
2022/11/23 10:37:26;;;;;;;361.90;138.27;;;;;;;;;;5001844;28;20216;-53
2022/11/23 10:39:52;;;;;;;401.43;130.87;;;;;;;;;;5006287;28;20621;-54
2022/11/23 10:42:22;;;;;;;352.37;132.07;;;;;;;;;;5007932;28;20693;-53
2022/11/23 10:44:50;;;;;;;382.77;135.70;;;;;;;;;;5007146;28;20675;-54
2022/11/23 10:47:32;;;;;;;234.93;95.43;;;;;;;;;;5012548;28;20221;-53
2022/11/23 10:49:59;;;;;;;261.90;104.90;;;;;;;;;;5013246;28;20265;-53
2022/11/23 10:52:30;;;;;;;415.77;149.00;;;;;;;;;;5018787;28;20290;-53
2022/11/23 10:54:57;;;;;;;459.53;155.07;;;;;;;;;;5005423;28;20230;-52
2022/11/23 10:57:46;;;;;;;345.37;134.03;;;;;;;;;;5007620;28;20192;-52
2022/11/23 11:00:12;;;;;;;329.90;119.85;;;;;;;;;;5006312;28;20173;-52
2022/11/23 11:02:40;;;;;;;306.37;114.13;;;;;;;;;;5004880;28;20221;-52
2022/11/23 11:05:21;;;;;;;316.87;121.73;;;;;;;;;;5010542;28;20568;-52
2022/11/23 11:07:47;;;;;;;352.83;123.93;;;;;;;;;;5012131;28;20231;-52
2022/11/23 11:10:32;;;;;;;356.37;131.40;;;;;;;;;;5026656;28;20218;-52
2022/11/23 11:12:58;;;;;;;281.37;119.47;;;;;;;;;;5006726;28;20220;-52
2022/11/23 11:15:24;;;;;;;433.03;149.43;;;;;;;;;;5008874;28;20209;-52
2022/11/23 11:17:57;;;;;;;263.80;100.87;;;;;;;;;;5009197;28;20212;-52
2022/11/23 11:20:26;;;;;;;445.57;148.20;;;;;;;;;;5012286;28;20235;-53
2022/11/23 11:22:53;;;;;;;470.67;166.87;;;;;;;;;;5003932;28;20231;-54
2022/11/23 11:25:30;;;;;;;441.57;147.43;;;;;;;;;;5003440;28;20307;-53
2022/11/23 11:27:57;;;;;;;327.00;129.20;;;;;;;;;;5007199;28;20216;-54
2022/11/23 11:30:24;;;;;;;439.17;173.80;;;;;;;;;;5002020;28;20881;-54
2022/11/23 11:33:07;;;;;;;516.43;201.73;;;;;;;;;;5008498;28;20354;-54
2022/11/23 11:35:40;;;;;;;500.53;198.80;;;;;;;;;;5004784;28;20248;-54
2022/11/23 11:38:26;;;;;;;365.73;149.17;;;;;;;;;;5013072;28;20216;-53
2022/11/23 11:40:53;;;;;;;518.70;217.00;;;;;;;;;;5011120;28;20988;-54
2022/11/23 11:43:25;;;;;;;399.93;164.20;;;;;;;;;;5021038;28;20311;-53
2022/11/23 11:45:58;;;;;;;465.70;196.10;;;;;;;;;;5001770;28;20208;-53
2022/11/23 11:48:24;;;;;;;440.03;167.87;;;;;;;;;;5005887;28;20205;-53
2022/11/23 11:50:53;;;;;;;504.30;201.27;;;;;;;;;;5003196;28;20879;-54
2022/11/23 11:53:23;;;;;;;433.73;177.13;;;;;;;;;;5003738;28;20205;-54
2022/11/23 11:55:55;;;;;;;454.07;168.67;;;;;;;;;;5004369;28;20209;-53
2022/11/23 11:58:23;;;;;;;305.67;124.33;;;;;;;;;;5003287;28;20212;-54
2022/11/23 12:00:51;;;;;;;215.70;101.33;;;;;;;;;;5019259;28;20223;-53
2022/11/23 12:03:36;;;;;;;208.23;95.33;;;;;;;;;;5005168;28;20189;-53
2022/11/23 12:06:13;;;;;;;341.23;135.77;;;;;;;;;;5003986;28;20208;-54
2022/11/23 12:09:00;;;;;;;407.30;155.80;;;;;;;;;;5000354;28;20614;-52
2022/11/23 12:11:27;;;;;;;428.47;152.97;;;;;;;;;;4999953;28;20290;-56
2022/11/23 12:13:58;;;;;;;201.17;96.33;;;;;;;;;;5004334;28;20213;-53
2022/11/23 12:16:43;;;;;;;424.33;151.07;;;;;;;;;;5002934;28;20548;-54
2022/11/23 12:19:12;;;;;;;269.03;113.23;;;;;;;;;;5003826;28;20274;-54
2022/11/23 12:21:38;;;;;;;292.53;123.30;;;;;;;;;;5004679;28;20216;-54
2022/11/23 12:24:11;;;;;;;257.00;109.70;;;;;;;;;;5006211;28;20205;-54
2022/11/23 12:26:43;;;;;;;442.40;154.60;;;;;;;;;;5002580;28;20208;-54
2022/11/23 12:29:09;;;;;;;321.80;124.67;;;;;;;;;;5017354;28;20216;-53
2022/11/23 12:31:38;;;;;;;426.40;159.27;;;;;;;;;;5003030;28;20273;-54
2022/11/23 12:34:22;;;;;;;267.20;110.20;;;;;;;;;;5000881;28;20565;-54
2022/11/23 12:36:52;;;;;;;435.00;169.00;;;;;;;;;;5000764;28;20220;-53
2022/11/23 12:39:28;;;;;;;353.97;141.83;;;;;;;;;;4999600;28;20180;-53
2022/11/23 12:41:59;;;;;;;340.50;134.65;;;;;;;;;;5002649;28;20216;-54
2022/11/23 12:44:25;;;;;;;342.67;144.47;;;;;;;;;;5000271;28;20243;-53
2022/11/23 12:46:58;;;;;;;344.53;135.93;;;;;;;;;;4997310;28;20530;-54
2022/11/23 12:49:56;;;;;;;339.57;141.33;;;;;;;;;;5002691;28;20279;-54
2022/11/23 12:52:36;;;;;;;467.80;182.20;;;;;;;;;;4979758;28;20220;-54
2022/11/23 12:55:05;;;;;;;253.43;122.50;;;;;;;;;;5015447;28;20220;-54
2022/11/23 12:57:44;;;;;;;345.50;148.70;;;;;;;;;;5009681;28;20215;-54
2022/11/23 13:00:15;;;;;;;312.73;136.73;;;;;;;;;;5011162;28;20614;-53
2022/11/23 13:02:59;;;;;;;322.97;140.63;;;;;;;;;;5010830;28;20223;-54
2022/11/23 13:05:35;;;;;;;342.57;142.53;;;;;;;;;;5007335;28;20265;-54
2022/11/23 13:08:16;;;;;;;321.17;142.60;;;;;;;;;;5010198;28;20747;-54
2022/11/23 13:10:51;;;;;;;491.97;193.53;;;;;;;;;;5009915;28;20232;-54
2022/11/23 13:13:35;;;;;;;294.20;135.10;;;;;;;;;;4998484;28;20248;-54
2022/11/23 13:16:01;;;;;;;270.93;129.57;;;;;;;;;;5008479;28;20212;-54
2022/11/23 13:18:38;;;;;;;285.93;130.43;;;;;;;;;;5013165;28;20644;-53
2022/11/23 13:21:22;;;;;;;326.73;142.57;;;;;;;;;;5024331;28;20173;-53
2022/11/23 13:23:48;;;;;;;373.43;152.17;;;;;;;;;;5007810;28;20232;-54
2022/11/23 13:26:19;;;;;;;473.43;179.07;;;;;;;;;;5010991;28;20695;-54
2022/11/23 13:28:52;;;;;;;316.93;141.47;;;;;;;;;;5006689;28;20896;-53
2022/11/23 13:31:18;;;;;;;528.80;188.80;;;;;;;;;;4996776;28;20282;-54
2022/11/23 13:33:49;;;;;;;327.67;139.47;;;;;;;;;;5022113;28;20284;-54
2022/11/23 13:36:30;;;;;;;258.43;116.97;;;;;;;;;;5009307;28;20181;-54
2022/11/23 13:38:57;;;;;;;323.03;137.30;;;;;;;;;;5010824;28;20234;-54
2022/11/23 13:41:39;;;;;;;456.87;165.63;;;;;;;;;;5024265;28;20317;-53
2022/11/23 13:44:10;;;;;;;367.33;145.13;;;;;;;;;;5017513;28;20215;-54
2022/11/23 13:46:37;;;;;;;423.50;160.53;;;;;;;;;;5011732;28;20303;-53
2022/11/23 13:49:03;;;;;;;343.23;143.27;;;;;;;;;;5014812;28;20209;-54
2022/11/23 13:51:30;;;;;;;355.33;143.27;;;;;;;;;;5008050;28;20705;-55
2022/11/23 13:53:59;;;;;;;391.97;155.43;;;;;;;;;;5012157;28;20262;-53
2022/11/23 13:56:28;;;;;;;370.17;147.50;;;;;;;;;;5003379;28;20744;-53
2022/11/23 13:58:56;;;;;;;333.37;134.27;;;;;;;;;;5005911;28;20292;-54
2022/11/23 14:01:40;;;;;;;444.93;171.70;;;;;;;;;;5002967;28;20457;-54